createdAt,value
2022-09-27T00:02:56.303Z,14.30
2022-09-27T00:06:05.414Z,14.05
2022-09-27T00:09:08.163Z,14.01
2022-09-27T00:12:11.217Z,14.01
2022-09-27T00:15:14.009Z,13.91
2022-09-27T00:18:16.970Z,13.91
2022-09-27T00:21:21.214Z,14.02
2022-09-27T00:24:24.252Z,13.95
2022-09-27T00:27:28.140Z,13.92
2022-09-27T00:30:30.916Z,14.07
2022-09-27T00:33:33.690Z,13.90
2022-09-27T00:36:37.850Z,14.00
2022-09-27T00:39:40.519Z,14.17
2022-09-27T00:42:43.269Z,13.94
2022-09-27T00:45:51.202Z,13.84
2022-09-27T00:49:04.850Z,13.87
2022-09-27T00:52:14.140Z,13.88
2022-09-27T00:55:20.434Z,13.97
2022-09-27T00:58:28.540Z,13.93
2022-09-27T01:01:31.625Z,13.88
2022-09-27T01:04:36.544Z,13.91
2022-09-27T01:07:40.702Z,13.82
2022-09-27T01:10:53.346Z,13.91
2022-09-27T01:14:24.151Z,13.91
2022-09-27T01:17:41.424Z,14.00
2022-09-27T01:21:20.696Z,14.10
2022-09-27T01:24:37.414Z,13.91
2022-09-27T01:28:12.689Z,13.82
2022-09-27T01:31:25.447Z,13.96
2022-09-27T01:34:36.519Z,14.01
2022-09-27T01:37:48.604Z,13.85
2022-09-27T01:40:58.831Z,13.92
2022-09-27T01:44:05.068Z,13.81
2022-09-27T01:47:16.455Z,13.82
2022-09-27T01:50:25.545Z,13.78
2022-09-27T01:53:33.313Z,14.04
2022-09-27T01:56:41.692Z,13.85
2022-09-27T01:59:48.672Z,13.78
2022-09-27T02:02:58.266Z,13.99
2022-09-27T02:06:09.079Z,13.93
2022-09-27T02:09:15.547Z,13.93
2022-09-27T02:12:24.109Z,13.98
2022-09-27T02:15:28.114Z,13.82
2022-09-27T02:18:36.415Z,13.82
2022-09-27T02:21:48.281Z,13.80
2022-09-27T02:24:57.660Z,13.80
2022-09-27T02:28:10.589Z,13.86
2022-09-27T02:31:13.635Z,13.79
2022-09-27T02:34:22.350Z,13.97
2022-09-27T02:37:25.067Z,13.98
2022-09-27T02:40:33.257Z,13.87
2022-09-27T02:43:36.029Z,13.85
2022-09-27T02:47:14.418Z,14.01
2022-09-27T02:50:37.053Z,13.92
2022-09-27T02:53:49.119Z,13.87
2022-09-27T02:57:02.243Z,13.84
2022-09-27T03:00:08.921Z,13.94
2022-09-27T03:03:16.277Z,14.00
2022-09-27T03:06:23.775Z,13.96
2022-09-27T03:09:30.914Z,13.91
2022-09-27T03:12:34.740Z,13.92
2022-09-27T03:15:37.375Z,13.87
2022-09-27T03:18:40.208Z,13.98
2022-09-27T03:21:44.145Z,13.87
2022-09-27T03:24:46.864Z,13.84
2022-09-27T03:27:49.735Z,13.74
2022-09-27T03:30:52.843Z,13.69
2022-09-27T03:33:55.672Z,13.81
2022-09-27T03:36:59.628Z,13.74
2022-09-27T03:40:02.706Z,13.70
2022-09-27T03:43:05.350Z,13.71
2022-09-27T03:46:08.180Z,13.60
2022-09-27T03:49:11.033Z,13.58
2022-09-27T03:52:15.229Z,13.67
2022-09-27T03:55:18.048Z,13.63
2022-09-27T03:58:20.704Z,13.48
2022-09-27T04:01:23.458Z,13.54
2022-09-27T04:04:26.260Z,13.57
2022-09-27T04:07:31.236Z,13.48
2022-09-27T04:10:33.885Z,13.50
2022-09-27T04:13:36.500Z,13.40
2022-09-27T04:16:39.270Z,13.34
2022-09-27T04:19:41.945Z,13.35
2022-09-27T04:22:46.098Z,13.34
2022-09-27T04:25:49.077Z,13.51
2022-09-27T04:28:54.719Z,13.42
2022-09-27T04:31:57.779Z,13.38
2022-09-27T04:35:17.919Z,13.33
2022-09-27T04:38:24.207Z,13.34
2022-09-27T04:41:28.709Z,13.50
2022-09-27T04:44:31.611Z,13.31
2022-09-27T04:47:34.385Z,13.26
2022-09-27T04:50:37.877Z,13.44
2022-09-27T04:53:41.959Z,13.26
2022-09-27T04:56:44.577Z,13.22
2022-09-27T04:59:47.241Z,13.18
2022-09-27T05:02:50.142Z,13.07
2022-09-27T05:05:52.897Z,13.09
2022-09-27T05:08:58.507Z,13.23
2022-09-27T05:12:01.345Z,13.16
2022-09-27T05:15:04.582Z,13.23
2022-09-27T05:18:08.252Z,13.13
2022-09-27T05:21:11.041Z,13.11
2022-09-27T05:24:15.124Z,12.95
2022-09-27T05:27:20.253Z,12.98
2022-09-27T05:30:22.900Z,13.09
2022-09-27T05:33:25.685Z,13.25
2022-09-27T05:36:28.540Z,13.07
2022-09-27T05:39:32.509Z,13.02
2022-09-27T05:42:35.997Z,12.87
2022-09-27T05:45:38.915Z,12.75
2022-09-27T05:48:41.641Z,12.92
2022-09-27T05:51:44.419Z,13.05
2022-09-27T05:54:48.398Z,13.20
2022-09-27T05:57:58.806Z,12.95
2022-09-27T06:01:01.598Z,12.85
2022-09-27T06:04:05.553Z,13.01
2022-09-27T06:07:08.390Z,12.95
2022-09-27T06:10:12.463Z,12.96
2022-09-27T06:13:17.299Z,12.93
2022-09-27T06:16:20.065Z,12.93
2022-09-27T06:19:22.850Z,12.87
2022-09-27T06:22:25.549Z,12.89
2022-09-27T06:25:29.579Z,12.89
2022-09-27T06:28:32.695Z,13.00
2022-09-27T06:31:35.337Z,13.12
2022-09-27T06:34:38.093Z,13.10
2022-09-27T06:37:40.714Z,13.04
2022-09-27T06:40:46.517Z,13.14
2022-09-27T06:43:49.492Z,13.18
2022-09-27T06:46:52.858Z,13.03
2022-09-27T06:49:55.511Z,13.03
2022-09-27T06:52:58.129Z,13.21
2022-09-27T06:56:03.117Z,13.00
2022-09-27T06:59:23.350Z,13.03
2022-09-27T07:02:27.841Z,13.13
2022-09-27T07:05:31.385Z,13.21
2022-09-27T07:08:35.898Z,13.02
2022-09-27T07:11:40.200Z,12.91
2022-09-27T07:14:42.833Z,12.94
2022-09-27T07:17:45.622Z,12.92
2022-09-27T07:20:48.260Z,13.06
2022-09-27T07:23:51.116Z,13.18
2022-09-27T07:26:55.060Z,13.07
2022-09-27T07:29:57.697Z,13.08
2022-09-27T07:33:00.804Z,12.98
2022-09-27T07:36:08.728Z,13.08
2022-09-27T07:39:11.602Z,13.22
2022-09-27T07:42:15.606Z,13.20
2022-09-27T07:45:18.651Z,13.24
2022-09-27T07:48:21.376Z,13.37
2022-09-27T07:51:24.309Z,13.28
2022-09-27T07:54:27.049Z,13.35
2022-09-27T07:57:31.016Z,13.21
2022-09-27T08:00:33.883Z,13.28
2022-09-27T08:03:36.514Z,13.26
2022-09-27T08:06:39.373Z,13.44
2022-09-27T08:09:42.026Z,13.32
2022-09-27T08:12:46.439Z,13.30
2022-09-27T08:15:50.936Z,13.40
2022-09-27T08:18:54.385Z,13.34
2022-09-27T08:21:58.989Z,13.47
2022-09-27T08:25:01.796Z,13.41
2022-09-27T08:28:06.365Z,13.50
2022-09-27T08:31:08.943Z,13.56
2022-09-27T08:34:11.596Z,13.36
2022-09-27T08:37:14.425Z,13.45
2022-09-27T08:40:18.227Z,13.65
2022-09-27T08:43:36.758Z,13.64
2022-09-27T08:46:50.893Z,13.63
2022-09-27T08:49:59.678Z,13.72
2022-09-27T08:53:08.632Z,13.74
2022-09-27T08:56:13.129Z,13.66
2022-09-27T08:59:21.825Z,13.73
2022-09-27T09:02:26.442Z,13.77
2022-09-27T09:05:32.047Z,13.92
2022-09-27T09:08:43.575Z,13.86
2022-09-27T09:12:17.748Z,13.94
2022-09-27T09:15:31.020Z,13.89
2022-09-27T09:18:54.357Z,13.91
2022-09-27T09:22:05.402Z,13.92
2022-09-27T09:25:22.595Z,14.10
2022-09-27T09:28:37.321Z,14.05
2022-09-27T09:31:48.731Z,14.18
2022-09-27T09:34:58.388Z,14.24
2022-09-27T09:38:06.491Z,14.36
2022-09-27T09:41:17.514Z,14.36
2022-09-27T09:44:26.009Z,14.47
2022-09-27T09:47:37.307Z,14.47
2022-09-27T09:50:45.337Z,14.36
2022-09-27T09:53:54.026Z,14.42
2022-09-27T09:57:03.483Z,14.44
2022-09-27T10:00:14.246Z,14.41
2022-09-27T10:03:19.590Z,14.53
2022-09-27T10:06:22.509Z,14.67
2022-09-27T10:09:27.465Z,14.50
2022-09-27T10:12:30.447Z,14.62
2022-09-27T10:15:34.229Z,14.57
2022-09-27T10:18:44.110Z,14.60
2022-09-27T10:21:52.144Z,14.77
2022-09-27T10:24:57.877Z,15.05
2022-09-27T10:28:01.145Z,15.12
2022-09-27T10:31:06.131Z,15.13
2022-09-27T10:34:20.145Z,15.23
2022-09-27T10:37:24.730Z,15.11
2022-09-27T10:40:30.474Z,15.09
2022-09-27T10:43:35.272Z,15.02
2022-09-27T10:46:39.032Z,15.03
2022-09-27T10:49:45.058Z,15.09
2022-09-27T10:52:47.859Z,15.23
2022-09-27T10:55:52.794Z,15.30
2022-09-27T10:58:56.122Z,15.29
2022-09-27T11:01:59.695Z,15.41
2022-09-27T11:05:15.358Z,15.56
2022-09-27T11:08:24.533Z,15.93
2022-09-27T11:11:29.805Z,16.28
2022-09-27T11:14:33.017Z,16.57
2022-09-27T11:17:45.570Z,16.07
2022-09-27T11:20:54.539Z,16.19
2022-09-27T11:24:13.311Z,15.92
2022-09-27T11:27:26.542Z,15.66
2022-09-27T11:30:38.180Z,15.79
2022-09-27T11:33:56.823Z,15.47
2022-09-27T11:37:17.699Z,15.18
2022-09-27T11:40:31.759Z,14.55
2022-09-27T11:44:04.643Z,14.02
2022-09-27T11:47:17.589Z,13.74
2022-09-27T11:50:51.213Z,13.60
2022-09-27T11:54:07.159Z,13.43
2022-09-27T11:57:19.007Z,13.40
2022-09-27T12:00:24.559Z,13.37
2022-09-27T12:03:42.460Z,13.59
2022-09-27T12:06:55.895Z,13.73
2022-09-27T12:10:04.769Z,13.86
2022-09-27T12:13:11.441Z,14.02
2022-09-27T12:16:17.499Z,14.04
2022-09-27T12:19:24.576Z,14.03
2022-09-27T12:22:57.202Z,13.96
2022-09-27T12:26:04.040Z,13.89
2022-09-27T12:29:13.861Z,13.95
2022-09-27T12:32:22.034Z,13.88
2022-09-27T12:35:28.765Z,13.84
2022-09-27T12:38:41.453Z,13.99
2022-09-27T12:41:52.623Z,14.02
2022-09-27T12:44:55.278Z,14.33
2022-09-27T12:48:08.997Z,14.45
2022-09-27T12:51:13.731Z,14.56
2022-09-27T12:54:34.981Z,14.50
2022-09-27T12:57:50.573Z,14.56
2022-09-27T13:00:59.288Z,14.37
2022-09-27T13:04:16.485Z,14.16
2022-09-27T13:07:32.308Z,14.24
2022-09-27T13:10:47.807Z,14.14
2022-09-27T13:13:56.222Z,13.91
2022-09-27T13:16:59.052Z,13.95
2022-09-27T13:20:49.338Z,13.93
2022-09-27T13:23:53.438Z,13.83
2022-09-27T13:26:56.468Z,13.92
2022-09-27T13:30:48.442Z,14.02
2022-09-27T13:33:52.688Z,14.01
2022-09-27T13:36:55.291Z,14.06
2022-09-27T13:40:21.767Z,14.22
2022-09-27T13:44:07.322Z,14.36
2022-09-27T13:47:33.039Z,14.45
2022-09-27T13:50:46.562Z,14.27
2022-09-27T13:53:58.916Z,14.40
2022-09-27T13:57:06.538Z,14.43
2022-09-27T14:00:15.237Z,14.44
2022-09-27T14:03:52.876Z,14.34
2022-09-27T14:07:00.017Z,14.16
2022-09-27T14:10:04.221Z,14.03
2022-09-27T14:13:08.265Z,14.08
2022-09-27T14:16:16.448Z,14.26
2022-09-27T14:19:22.679Z,14.62
2022-09-27T14:22:25.977Z,14.77
2022-09-27T14:25:28.915Z,14.66
2022-09-27T14:28:42.230Z,14.68
2022-09-27T14:31:45.009Z,14.59
2022-09-27T14:34:47.841Z,14.34
2022-09-27T14:37:52.789Z,14.28
2022-09-27T14:41:00.216Z,14.20
2022-09-27T14:44:04.273Z,14.14
2022-09-27T14:47:10.705Z,14.12
2022-09-27T14:50:19.495Z,13.92
2022-09-27T14:53:24.141Z,13.98
2022-09-27T14:56:30.363Z,13.88
2022-09-27T14:59:37.840Z,14.01
2022-09-27T15:02:42.694Z,14.02
2022-09-27T15:05:45.753Z,13.91
2022-09-27T15:08:50.413Z,13.96
2022-09-27T15:12:00.857Z,13.85
2022-09-27T15:15:07.101Z,13.61
2022-09-27T15:18:31.835Z,13.68
2022-09-27T15:21:37.423Z,13.62
2022-09-27T15:24:44.545Z,13.40
2022-09-27T15:27:52.619Z,13.50
2022-09-27T15:30:58.282Z,13.56
2022-09-27T15:34:01.218Z,13.62
2022-09-27T15:37:06.478Z,13.66
2022-09-27T15:40:49.461Z,13.68
2022-09-27T15:43:53.489Z,13.68
2022-09-27T15:46:57.347Z,13.57
2022-09-27T15:50:00.404Z,13.54
2022-09-27T15:53:05.443Z,13.54
2022-09-27T15:56:08.148Z,13.51
2022-09-27T15:59:17.927Z,13.32
2022-09-27T16:02:21.839Z,13.19
2022-09-27T16:05:24.951Z,12.98
2022-09-27T16:08:27.902Z,12.90
2022-09-27T16:11:30.599Z,12.86
2022-09-27T16:14:33.024Z,12.84
2022-09-27T16:17:38.625Z,12.76
2022-09-27T16:20:41.898Z,12.66
2022-09-27T16:23:44.560Z,12.57
2022-09-27T16:26:47.125Z,12.35
2022-09-27T16:29:49.946Z,12.37
2022-09-27T16:32:54.475Z,12.39
2022-09-27T16:35:57.058Z,12.36
2022-09-27T16:38:59.816Z,12.33
2022-09-27T16:42:05.792Z,12.38
2022-09-27T16:45:12.645Z,12.43
2022-09-27T16:48:18.511Z,12.43
2022-09-27T16:51:40.148Z,12.43
2022-09-27T16:54:43.637Z,12.34
2022-09-27T16:57:46.214Z,12.48
2022-09-27T17:00:49.393Z,12.37
2022-09-27T17:03:57.482Z,12.34
2022-09-27T17:07:00.986Z,12.27
2022-09-27T17:10:03.571Z,12.23
2022-09-27T17:13:07.293Z,12.18
2022-09-27T17:16:10.906Z,12.17
2022-09-27T17:19:15.838Z,12.16
2022-09-27T17:22:19.037Z,12.12
2022-09-27T17:25:21.621Z,11.97
2022-09-27T17:28:24.497Z,12.01
2022-09-27T17:31:27.508Z,12.01
2022-09-27T17:34:32.250Z,12.00
2022-09-27T17:37:34.810Z,11.97
2022-09-27T17:40:37.941Z,11.93
2022-09-27T17:43:43.744Z,11.84
2022-09-27T17:46:47.687Z,11.81
2022-09-27T17:50:09.087Z,11.69
2022-09-27T17:53:11.666Z,11.81
2022-09-27T17:56:14.804Z,11.68
2022-09-27T17:59:18.633Z,11.65
2022-09-27T18:02:21.606Z,11.55
2022-09-27T18:05:25.752Z,11.44
2022-09-27T18:08:32.256Z,11.39
2022-09-27T18:11:35.476Z,11.38
2022-09-27T18:14:38.037Z,11.30
2022-09-27T18:17:40.735Z,11.14
2022-09-27T18:20:44.624Z,11.12
2022-09-27T18:23:47.329Z,11.09
2022-09-27T18:26:49.920Z,11.11
2022-09-27T18:29:52.600Z,11.23
2022-09-27T18:32:55.166Z,11.27
2022-09-27T18:36:03.091Z,11.13
2022-09-27T18:39:09.377Z,11.04
2022-09-27T18:42:11.949Z,11.14
2022-09-27T18:45:14.651Z,11.14
2022-09-27T18:48:17.269Z,11.16
2022-09-27T18:51:24.339Z,11.17
2022-09-27T18:54:26.997Z,11.14
2022-09-27T18:57:32.872Z,11.18
2022-09-27T19:00:35.620Z,11.19
2022-09-27T19:03:38.431Z,11.26
2022-09-27T19:06:43.617Z,11.27
2022-09-27T19:09:46.178Z,11.30
2022-09-27T19:12:49.034Z,11.15
2022-09-27T19:15:55.797Z,11.13
2022-09-27T19:18:58.546Z,11.07
2022-09-27T19:22:02.635Z,11.02
2022-09-27T19:25:06.175Z,10.94
2022-09-27T19:28:08.847Z,10.91
2022-09-27T19:31:14.481Z,10.80
2022-09-27T19:34:17.379Z,10.78
2022-09-27T19:37:21.368Z,10.80
2022-09-27T19:40:23.987Z,10.78
2022-09-27T19:43:26.772Z,10.77
2022-09-27T19:46:29.472Z,10.70
2022-09-27T19:49:32.225Z,10.80
2022-09-27T19:52:36.133Z,11.09
2022-09-27T19:55:38.821Z,11.56
2022-09-27T19:58:42.628Z,11.86
2022-09-27T20:01:45.347Z,11.82
2022-09-27T20:04:47.969Z,11.88
2022-09-27T20:07:53.863Z,11.93
2022-09-27T20:11:01.333Z,11.93
2022-09-27T20:14:06.439Z,11.90
2022-09-27T20:17:09.644Z,11.88
2022-09-27T20:20:12.193Z,11.71
2022-09-27T20:23:20.007Z,11.74
2022-09-27T20:26:24.473Z,11.63
2022-09-27T20:29:27.136Z,11.56
2022-09-27T20:32:29.885Z,11.63
2022-09-27T20:35:32.923Z,11.73
2022-09-27T20:38:37.047Z,11.77
2022-09-27T20:41:41.889Z,11.79
2022-09-27T20:44:44.659Z,11.71
2022-09-27T20:47:47.225Z,11.77
2022-09-27T20:50:49.938Z,11.82
2022-09-27T20:53:54.399Z,11.79
2022-09-27T20:56:57.104Z,11.73
2022-09-27T20:59:59.692Z,11.76
2022-09-27T21:03:02.367Z,11.73
2022-09-27T21:06:05.667Z,11.88
2022-09-27T21:09:10.744Z,11.82
2022-09-27T21:12:13.455Z,11.85
2022-09-27T21:15:16.255Z,11.90
2022-09-27T21:18:20.155Z,11.73
2022-09-27T21:21:24.623Z,11.62
2022-09-27T21:24:28.623Z,11.78
2022-09-27T21:27:31.201Z,11.86
2022-09-27T21:30:36.344Z,11.97
2022-09-27T21:33:39.702Z,11.96
2022-09-27T21:36:42.440Z,11.89
2022-09-27T21:39:46.412Z,11.95
2022-09-27T21:42:56.929Z,11.85
2022-09-27T21:46:04.457Z,11.72
2022-09-27T21:49:07.383Z,11.76
2022-09-27T21:52:10.069Z,11.94
2022-09-27T21:55:14.050Z,11.91
2022-09-27T21:58:16.810Z,11.82
2022-09-27T22:01:21.730Z,11.76
2022-09-27T22:04:24.482Z,11.82
2022-09-27T22:07:27.058Z,11.71
2022-09-27T22:10:31.101Z,11.82
2022-09-27T22:13:34.309Z,11.85
2022-09-27T22:16:37.363Z,11.87
2022-09-27T22:19:40.117Z,11.86
2022-09-27T22:22:42.687Z,11.75
2022-09-27T22:25:47.004Z,11.87
2022-09-27T22:28:50.043Z,11.87
2022-09-27T22:31:52.727Z,11.82
2022-09-27T22:34:55.309Z,11.76
2022-09-27T22:37:58.213Z,11.62
2022-09-27T22:41:03.542Z,11.59
2022-09-27T22:44:06.255Z,11.43
2022-09-27T22:47:09.092Z,11.29
2022-09-27T22:50:11.791Z,11.40
2022-09-27T22:53:15.287Z,11.39
2022-09-27T22:56:21.432Z,11.60
2022-09-27T22:59:24.975Z,11.59
2022-09-27T23:02:27.519Z,11.44
2022-09-27T23:05:30.183Z,11.50
2022-09-27T23:08:35.187Z,11.66
2022-09-27T23:11:39.249Z,11.66
2022-09-27T23:14:42.677Z,11.50
2022-09-27T23:17:45.574Z,11.52
2022-09-27T23:20:48.092Z,11.67
2022-09-27T23:23:52.899Z,11.52
2022-09-27T23:27:10.704Z,11.56
2022-09-27T23:30:14.456Z,11.61
2022-09-27T23:33:17.035Z,11.75
2022-09-27T23:36:22.616Z,11.66
2022-09-27T23:39:25.132Z,11.55
2022-09-27T23:42:29.169Z,11.59
2022-09-27T23:45:33.399Z,11.66
2022-09-27T23:48:36.814Z,11.63
2022-09-27T23:51:39.493Z,11.71
2022-09-27T23:54:42.064Z,11.78
2022-09-27T23:57:46.088Z,11.88
